Time;durP1;ratioP1;P1;durP2;ratioP2;P2;SDS_P1;SDS_P2;PMS_P1;PMS_P2;Temp;Humidity;BMP_temperature;BMP_pressure;BME280_temperature;BME280_humidity;BME280_pressure;Samples;Min_cycle;Max_cycle;Signal;HPM_P1;HPM_P2
2022/06/05 00:01:43;;;;;;;11.43;7.25;;;;;;;19.87;100.00;96298.78;4974681;28;20203;-72
2022/06/05 00:04:22;;;;;;;14.00;6.88;;;;;;;20.00;100.00;96293.22;4973957;28;21245;-72
2022/06/05 00:06:58;;;;;;;12.05;7.57;;;;;;;19.95;100.00;96289.63;4974821;28;20235;-72
2022/06/05 00:09:34;;;;;;;12.25;7.10;;;;;;;20.04;100.00;96289.03;4974668;28;20230;-72
2022/06/05 00:12:07;;;;;;;10.70;6.75;;;;;;;19.95;100.00;96285.06;4974561;28;20671;-72
2022/06/05 00:14:37;;;;;;;13.30;7.55;;;;;;;19.67;100.00;96292.94;4974224;28;20579;-72
2022/06/05 00:17:09;;;;;;;12.20;7.25;;;;;;;19.82;100.00;96284.47;4973926;28;20246;-72
2022/06/05 00:19:36;;;;;;;12.32;7.05;;;;;;;19.70;100.00;96289.00;4974555;28;20223;-72
2022/06/05 00:22:03;;;;;;;12.98;7.25;;;;;;;19.66;100.00;96295.84;4975067;28;20207;-72
2022/06/05 00:24:30;;;;;;;12.05;7.22;;;;;;;19.60;100.00;96291.41;4973688;28;20207;-72
2022/06/05 00:27:06;;;;;;;10.30;7.03;;;;;;;19.73;100.00;96302.72;4974430;28;20593;-72
2022/06/05 00:29:54;;;;;;;17.13;7.50;;;;;;;19.68;100.00;96294.56;4974973;28;20207;-72
2022/06/05 00:32:29;;;;;;;13.45;7.57;;;;;;;19.71;100.00;96288.75;4973911;28;20204;-72
2022/06/05 00:34:55;;;;;;;15.05;8.20;;;;;;;19.52;100.00;96296.31;4974519;28;20203;-72
2022/06/05 00:37:34;;;;;;;13.20;7.45;;;;;;;19.72;100.00;96295.75;4974554;28;20227;-72
2022/06/05 00:40:25;;;;;;;11.32;7.38;;;;;;;19.84;100.00;96287.72;4973958;28;20235;-72
2022/06/05 00:42:52;;;;;;;15.48;8.32;;;;;;;19.65;100.00;96295.06;4973583;28;20211;-72
2022/06/05 00:45:20;;;;;;;15.13;7.75;;;;;;;19.60;100.00;96291.41;4974539;28;20203;-72
2022/06/05 00:47:48;;;;;;;13.30;7.82;;;;;;;19.59;100.00;96285.28;4974175;28;21505;-72
2022/06/05 00:50:18;;;;;;;13.98;8.05;;;;;;;19.57;100.00;96280.41;4974118;28;20214;-72
2022/06/05 00:52:47;;;;;;;13.57;8.43;;;;;;;19.44;100.00;96286.75;4971082;28;20922;-72
2022/06/05 00:55:16;;;;;;;14.57;8.10;;;;;;;19.46;100.00;96278.50;4974413;28;20212;-72
2022/06/05 00:57:43;;;;;;;12.85;7.07;;;;;;;19.43;100.00;96268.28;4974307;28;20231;-73
2022/06/05 01:00:13;;;;;;;13.32;8.73;;;;;;;19.41;100.00;96267.69;4974371;28;20227;-72
2022/06/05 01:02:42;;;;;;;16.77;9.02;;;;;;;19.38;100.00;96257.47;4973648;28;20207;-73
2022/06/05 01:05:12;;;;;;;15.95;8.55;;;;;;;19.42;100.00;96261.31;4973920;28;20198;-71
2022/06/05 01:07:38;;;;;;;15.02;8.77;;;;;;;19.20;100.00;96268.25;4974112;28;20231;-72
2022/06/05 01:10:07;;;;;;;14.02;8.85;;;;;;;19.31;100.00;96264.75;4974692;28;20203;-72
2022/06/05 01:12:41;;;;;;;15.77;8.52;;;;;;;19.40;100.00;96258.03;4973323;28;20211;-72
2022/06/05 01:15:18;;;;;;;14.35;8.13;;;;;;;19.45;100.00;96244.81;4974987;28;20210;-71
2022/06/05 01:17:52;;;;;;;14.38;7.80;;;;;;;19.50;100.00;96251.09;4977105;28;20234;-71
2022/06/05 01:20:35;;;;;;;15.10;8.65;;;;;;;19.55;100.00;96253.06;4977273;28;20523;-71
2022/06/05 01:23:28;;;;;;;15.57;8.32;;;;;;;19.61;100.00;96251.13;4976692;28;20770;-71
2022/06/05 01:26:10;;;;;;;11.73;7.90;;;;;;;19.53;100.00;96244.47;4977328;28;20226;-72
2022/06/05 01:28:40;;;;;;;15.05;8.73;;;;;;;19.44;100.00;96233.31;4976896;28;20690;-72
2022/06/05 01:31:13;;;;;;;14.25;8.80;;;;;;;19.40;100.00;96234.00;4977306;28;20909;-72
2022/06/05 01:33:45;;;;;;;17.70;8.88;;;;;;;19.36;100.00;96241.69;4977228;28;20219;-71
2022/06/05 01:36:17;;;;;;;16.42;9.05;;;;;;;19.49;100.00;96235.28;4976768;28;20207;-72
2022/06/05 01:38:50;;;;;;;14.48;8.68;;;;;;;19.47;100.00;96237.38;4976883;28;20223;-71
2022/06/05 01:41:25;;;;;;;16.58;8.20;;;;;;;19.47;100.00;96227.50;4978192;28;20234;-71
2022/06/05 01:43:54;;;;;;;15.40;8.32;;;;;;;19.54;100.00;96232.72;4975574;28;20209;-71
2022/06/05 01:46:29;;;;;;;16.08;8.30;;;;;;;19.46;100.00;96231.19;4976715;28;20238;-70
2022/06/05 01:49:00;;;;;;;13.68;8.75;;;;;;;19.36;100.00;96230.16;4977405;28;20242;-72
2022/06/05 01:51:37;;;;;;;14.98;8.63;;;;;;;19.47;100.00;96238.19;4976887;28;20199;-72
2022/06/05 01:54:10;;;;;;;16.48;9.30;;;;;;;19.34;100.00;96248.28;4974639;28;21309;-70
2022/06/05 01:56:43;;;;;;;17.80;9.50;;;;;;;19.33;100.00;96254.69;4977025;28;20249;-70
2022/06/05 01:59:14;;;;;;;15.00;9.30;;;;;;;19.29;100.00;96256.97;4976272;28;20207;-71
2022/06/05 02:01:44;;;;;;;13.98;9.10;;;;;;;19.22;100.00;96252.78;4976866;28;20431;-72
2022/06/05 02:04:17;;;;;;;18.10;8.57;;;;;;;19.16;100.00;96237.69;4975867;28;20978;-71
2022/06/05 02:06:47;;;;;;;14.35;8.50;;;;;;;19.05;100.00;96215.22;4976222;28;20235;-71
2022/06/05 02:09:18;;;;;;;17.15;9.68;;;;;;;18.69;100.00;96205.72;4976524;28;20204;-72
2022/06/05 02:11:47;;;;;;;18.55;10.75;;;;;;;18.58;100.00;96193.97;4976777;28;20230;-71
2022/06/05 02:14:14;;;;;;;17.40;10.30;;;;;;;18.39;100.00;96189.72;4975947;28;20223;-70
2022/06/05 02:16:42;;;;;;;22.80;10.55;;;;;;;18.47;100.00;96186.72;4976198;28;20303;-71
2022/06/05 02:19:12;;;;;;;18.38;11.00;;;;;;;18.50;100.00;96180.94;4974096;28;20207;-71
2022/06/05 02:21:40;;;;;;;18.30;10.50;;;;;;;18.45;100.00;96169.31;4976829;28;20231;-72
2022/06/05 02:24:08;;;;;;;20.80;11.50;;;;;;;18.50;100.00;96164.91;4975706;28;20211;-71
2022/06/05 02:26:34;;;;;;;18.48;10.68;;;;;;;18.36;100.00;96152.81;4977219;28;20238;-72
2022/06/05 02:29:05;;;;;;;19.05;11.27;;;;;;;18.44;100.00;96155.16;4976837;28;20207;-70
2022/06/05 02:31:54;;;;;;;20.23;12.02;;;;;;;18.46;100.00;96144.25;4977119;28;20556;-71
2022/06/05 02:34:32;;;;;;;20.85;12.13;;;;;;;18.35;100.00;96137.84;4975667;28;20208;-72
2022/06/05 02:37:09;;;;;;;20.33;12.07;;;;;;;18.36;100.00;96136.78;4976199;28;20227;-71
2022/06/05 02:39:43;;;;;;;18.45;11.63;;;;;;;18.44;100.00;96123.16;4975956;28;20218;-71
2022/06/05 02:42:23;;;;;;;20.88;11.80;;;;;;;18.50;100.00;96113.41;4975827;28;20207;-72
2022/06/05 02:44:58;;;;;;;21.02;12.45;;;;;;;18.52;100.00;96098.81;4975788;28;20215;-72
2022/06/05 02:47:36;;;;;;;22.05;11.70;;;;;;;18.55;100.00;96092.19;4975745;28;20234;-71
2022/06/05 02:50:11;;;;;;;22.27;11.82;;;;;;;18.45;100.00;96092.72;4976313;28;20307;-70
2022/06/05 02:52:38;;;;;;;20.17;11.82;;;;;;;18.40;100.00;96097.94;4972771;28;20315;-71
2022/06/05 02:55:09;;;;;;;18.45;11.38;;;;;;;18.37;100.00;96094.94;4975215;28;20731;-71
2022/06/05 02:57:37;;;;;;;21.95;11.18;;;;;;;18.25;100.00;96096.72;4975286;28;20223;-72
2022/06/05 03:00:09;;;;;;;20.35;12.40;;;;;;;18.24;100.00;96097.81;4975355;28;20231;-71
2022/06/05 03:05:20;;;;;;;25.02;12.13;;;;;;;18.08;100.00;96095.72;4975449;28;20336;-72
2022/06/05 03:07:46;;;;;;;21.15;11.48;;;;;;;18.25;100.00;96101.25;4977669;28;20232;-71
2022/06/05 03:10:14;;;;;;;22.95;11.95;;;;;;;18.30;100.00;96104.06;4975780;28;20215;-71
2022/06/05 03:12:41;;;;;;;23.50;12.05;;;;;;;18.31;100.00;96097.69;4974731;28;20218;-71
2022/06/05 03:15:10;;;;;;;18.15;11.02;;;;;;;18.55;100.00;96098.31;4975782;28;20207;-73
2022/06/05 03:17:37;;;;;;;20.13;11.07;;;;;;;18.43;100.00;96100.16;4975430;28;20227;-72
2022/06/05 03:20:04;;;;;;;18.73;11.15;;;;;;;18.47;100.00;96098.66;4975375;28;20517;-72
2022/06/05 03:22:31;;;;;;;17.85;11.20;;;;;;;18.49;100.00;96099.22;4975272;28;20227;-72
2022/06/05 03:24:57;;;;;;;19.70;10.73;;;;;;;18.55;100.00;96094.84;4975187;28;20211;-70
2022/06/05 03:27:24;;;;;;;17.50;10.20;;;;;;;18.39;100.00;96093.66;4975154;28;20223;-71
2022/06/05 03:29:52;;;;;;;21.58;10.77;;;;;;;18.49;100.00;96090.44;4975401;28;20294;-71
2022/06/05 03:32:19;;;;;;;16.95;10.02;;;;;;;18.74;100.00;96089.19;4976090;28;20214;-71
2022/06/05 03:34:46;;;;;;;16.42;10.07;;;;;;;18.59;100.00;96085.34;4975333;28;20646;-71
2022/06/05 03:37:13;;;;;;;18.55;10.48;;;;;;;18.58;100.00;96081.03;4974751;28;20223;-71
2022/06/05 03:39:39;;;;;;;17.10;9.80;;;;;;;18.44;100.00;96080.47;4974955;28;20214;-72
2022/06/05 03:42:07;;;;;;;17.70;10.50;;;;;;;18.44;100.00;96069.78;4974987;28;20690;-72
2022/06/05 03:44:37;;;;;;;16.42;10.25;;;;;;;18.63;100.00;96068.63;4974750;28;20207;-71
2022/06/05 03:47:04;;;;;;;18.27;10.38;;;;;;;18.47;100.00;96063.97;4975232;28;20307;-71
2022/06/05 03:49:33;;;;;;;21.92;10.70;;;;;;;18.56;100.00;96054.59;4975648;28;20210;-71
2022/06/05 03:51:59;;;;;;;16.33;10.63;;;;;;;18.38;100.00;96061.88;4971798;28;20214;-72
2022/06/05 03:54:26;;;;;;;21.33;11.38;;;;;;;18.29;100.00;96070.44;4974880;28;20219;-72
2022/06/05 03:56:53;;;;;;;21.10;10.73;;;;;;;18.31;100.00;96068.34;4975185;28;20235;-72
2022/06/05 03:59:19;;;;;;;19.67;10.85;;;;;;;18.34;100.00;96058.84;4974162;28;20200;-72
2022/06/05 04:01:46;;;;;;;18.98;10.90;;;;;;;18.36;100.00;96047.94;4974788;28;20242;-72
2022/06/05 04:04:12;;;;;;;17.83;10.77;;;;;;;18.29;100.00;96049.09;4975601;28;20208;-72
2022/06/05 04:06:40;;;;;;;20.42;10.95;;;;;;;18.49;100.00;96056.53;4974955;28;20638;-72
2022/06/05 04:09:08;;;;;;;20.33;11.30;;;;;;;18.50;100.00;96047.50;4974427;28;20199;-72
2022/06/05 04:11:37;;;;;;;18.33;10.63;;;;;;;18.38;100.00;96048.53;4974599;28;20200;-72
2022/06/05 04:14:04;;;;;;;18.25;10.57;;;;;;;18.30;100.00;96056.84;4974622;28;20422;-72
2022/06/05 04:16:32;;;;;;;18.92;10.32;;;;;;;18.45;100.00;96052.72;4974546;28;20243;-72
2022/06/05 04:19:00;;;;;;;20.65;10.82;;;;;;;18.49;100.00;96055.75;4974949;28;20237;-72
2022/06/05 04:21:29;;;;;;;15.43;9.73;;;;;;;18.49;100.00;96064.53;4974166;28;20695;-72
2022/06/05 04:23:57;;;;;;;21.25;11.13;;;;;;;18.54;100.00;96059.34;4970731;28;20643;-72
2022/06/05 04:26:26;;;;;;;16.70;10.65;;;;;;;18.56;100.00;96067.94;4974088;28;20977;-72
2022/06/05 04:28:54;;;;;;;16.70;10.75;;;;;;;18.54;100.00;96080.69;4973973;28;20730;-72
2022/06/05 04:31:22;;;;;;;16.85;10.45;;;;;;;18.53;100.00;96089.75;4975529;28;20682;-72
2022/06/05 04:33:49;;;;;;;16.63;10.32;;;;;;;18.55;100.00;96090.31;4973801;28;20218;-71
2022/06/05 04:36:16;;;;;;;15.95;10.07;;;;;;;18.57;100.00;96093.59;4975178;28;20230;-71
2022/06/05 04:38:43;;;;;;;16.92;10.80;;;;;;;18.54;100.00;96090.56;4974543;28;20215;-72
2022/06/05 04:41:11;;;;;;;17.08;10.10;;;;;;;18.73;100.00;96081.44;4974525;28;20230;-73
2022/06/05 04:43:38;;;;;;;16.92;10.38;;;;;;;18.64;100.00;96080.94;4973917;28;20203;-72
2022/06/05 04:46:05;;;;;;;15.25;9.43;;;;;;;18.63;100.00;96076.63;4974551;28;20207;-74
2022/06/05 04:48:32;;;;;;;18.60;9.70;;;;;;;18.66;100.00;96057.50;4974111;28;21269;-71
2022/06/05 04:50:58;;;;;;;18.38;10.02;;;;;;;18.69;100.00;96057.03;4976584;28;20207;-71
2022/06/05 04:53:25;;;;;;;17.50;9.90;;;;;;;18.57;100.00;96044.72;4975440;28;20207;-72
2022/06/05 04:55:52;;;;;;;16.67;10.30;;;;;;;18.47;100.00;96037.28;4977531;28;20207;-71
2022/06/05 04:58:19;;;;;;;17.10;9.80;;;;;;;18.66;100.00;96028.16;4977634;28;20238;-72
2022/06/05 05:00:46;;;;;;;21.55;10.85;;;;;;;18.53;100.00;96019.53;4977763;28;20695;-71
2022/06/05 05:03:13;;;;;;;16.00;9.48;;;;;;;18.44;100.00;96007.59;4977781;28;20204;-72
2022/06/05 05:05:39;;;;;;;16.50;10.18;;;;;;;18.63;100.00;96007.25;4977988;28;20207;-72
2022/06/05 05:08:06;;;;;;;16.50;10.30;;;;;;;18.57;100.00;95994.84;4977380;28;20706;-72
2022/06/05 05:10:33;;;;;;;16.83;10.02;;;;;;;18.47;100.00;96009.81;4976722;28;20671;-71
2022/06/05 05:13:00;;;;;;;16.48;9.55;;;;;;;18.54;100.00;96003.28;4976557;28;20231;-74
2022/06/05 05:15:28;;;;;;;15.23;10.10;;;;;;;18.69;100.00;95994.84;4977177;28;20207;-71
2022/06/05 05:17:55;;;;;;;15.93;9.75;;;;;;;18.53;100.00;96003.53;4976872;28;20234;-71
2022/06/05 05:20:21;;;;;;;18.67;9.60;;;;;;;18.71;100.00;95998.06;4974651;28;20207;-74
2022/06/05 05:22:48;;;;;;;14.35;9.40;;;;;;;18.79;100.00;96001.22;4975354;28;20258;-74
2022/06/05 05:25:14;;;;;;;14.32;9.05;;;;;;;18.98;100.00;95997.38;4976341;28;20216;-72
2022/06/05 05:27:41;;;;;;;17.55;10.07;;;;;;;19.04;100.00;95991.06;4976353;28;20687;-75
2022/06/05 05:30:09;;;;;;;16.75;9.07;;;;;;;19.29;100.00;95997.00;4976118;28;20233;-72
2022/06/05 05:32:38;;;;;;;14.00;9.05;;;;;;;19.20;100.00;95985.06;4975662;28;20581;-74
2022/06/05 05:35:06;;;;;;;13.63;9.07;;;;;;;19.08;100.00;95992.25;4975711;28;20214;-71
2022/06/05 05:37:33;;;;;;;15.55;8.68;;;;;;;18.97;100.00;95995.75;4976067;28;20219;-72
2022/06/05 05:42:44;;;;;;;17.33;8.90;;;;;;;19.09;100.00;96002.75;4974937;28;20234;-72
2022/06/05 05:45:11;;;;;;;14.38;8.90;;;;;;;19.01;100.00;96003.03;4974797;28;20211;-72
2022/06/05 05:47:39;;;;;;;14.63;9.25;;;;;;;19.20;100.00;95996.53;4975515;28;20242;-72
2022/06/05 05:50:10;;;;;;;17.60;9.60;;;;;;;19.23;100.00;95989.91;4975921;28;20207;-73
2022/06/05 05:52:37;;;;;;;13.07;8.90;;;;;;;19.15;100.00;95983.06;4972741;28;21120;-72
2022/06/05 05:55:06;;;;;;;14.95;9.30;;;;;;;19.33;100.00;95974.91;4975661;28;20208;-71
2022/06/05 05:57:33;;;;;;;14.45;9.43;;;;;;;19.44;100.00;95978.59;4976983;28;20223;-72
2022/06/05 06:00:00;;;;;;;14.25;9.38;;;;;;;19.64;100.00;95999.31;4975808;28;20211;-72
2022/06/05 06:02:26;;;;;;;14.23;9.07;;;;;;;19.70;100.00;96018.94;4974943;28;20211;-72
2022/06/05 06:04:54;;;;;;;14.05;8.25;;;;;;;19.85;100.00;96049.47;4976151;28;20600;-73
2022/06/05 06:07:21;;;;;;;14.43;8.93;;;;;;;19.72;100.00;96126.47;4975868;28;21120;-72
2022/06/05 06:09:48;;;;;;;11.30;6.93;;;;;;;19.12;100.00;96265.91;4975767;28;21021;-74
2022/06/05 06:12:15;;;;;;;11.23;7.07;;;;;;;18.84;100.00;96316.41;4975764;28;20199;-72
2022/06/05 06:14:41;;;;;;;15.88;8.02;;;;;;;18.68;100.00;96329.56;4975141;28;20207;-71
2022/06/05 06:17:09;;;;;;;13.25;8.30;;;;;;;18.45;100.00;96338.22;4975596;28;20599;-71
2022/06/05 06:19:36;;;;;;;13.85;8.65;;;;;;;18.42;100.00;96333.34;4975154;28;20290;-71
2022/06/05 06:22:05;;;;;;;20.35;10.23;;;;;;;18.76;100.00;96330.06;4974894;28;20695;-72
2022/06/05 06:24:31;;;;;;;17.08;9.65;;;;;;;18.67;100.00;96339.44;4974997;28;20207;-71
2022/06/05 06:26:58;;;;;;;14.43;9.30;;;;;;;18.56;100.00;96348.19;4975443;28;20294;-72
2022/06/05 06:29:25;;;;;;;15.13;9.20;;;;;;;18.51;100.00;96364.03;4975946;28;20209;-71
2022/06/05 06:31:51;;;;;;;9.60;6.07;;;;;;;18.45;100.00;96362.25;4975895;28;20209;-72
2022/06/05 06:37:41;;;;;;;18.67;11.40;;;;;;;18.73;100.00;96335.84;4972830;28;20583;-73
2022/06/05 06:40:09;;;;;;;16.85;10.07;;;;;;;18.70;100.00;96373.69;4976238;28;20256;-72
2022/06/05 06:42:35;;;;;;;13.18;5.65;;;;;;;18.34;100.00;96383.50;4975709;28;20223;-71
2022/06/05 06:45:01;;;;;;;13.73;8.68;;;;;;;18.42;100.00;96357.38;4975867;28;20207;-72
2022/06/05 06:47:28;;;;;;;17.33;9.23;;;;;;;18.68;100.00;96357.06;4976003;28;20227;-72
2022/06/05 06:49:54;;;;;;;10.93;7.30;;;;;;;18.67;100.00;96395.50;4975916;28;20211;-71
2022/06/05 06:52:21;;;;;;;13.30;7.70;;;;;;;18.64;100.00;96401.25;4972888;28;20199;-73
2022/06/05 06:54:50;;;;;;;8.32;5.55;;;;;;;18.42;100.00;96325.34;4976239;28;20214;-72
2022/06/05 06:57:16;;;;;;;10.48;4.80;;;;;;;18.19;100.00;96227.53;4976040;28;20263;-71
2022/06/05 06:59:43;;;;;;;7.55;3.25;;;;;;;17.77;100.00;96279.06;4975424;28;20211;-71
2022/06/05 07:02:09;;;;;;;11.15;2.58;;;;;;;17.95;100.00;96249.75;4975678;28;20227;-71
2022/06/05 07:04:36;;;;;;;6.00;2.60;;;;;;;17.87;100.00;96200.19;4975430;28;20210;-74
2022/06/05 07:07:03;;;;;;;3.67;1.95;;;;;;;17.88;100.00;96203.66;4972748;28;20718;-74
2022/06/05 07:09:30;;;;;;;5.32;2.53;;;;;;;17.80;100.00;96210.09;4975078;28;20452;-71
2022/06/05 07:11:57;;;;;;;3.30;1.63;;;;;;;17.90;100.00;96228.25;4974960;28;20633;-71
2022/06/05 07:14:25;;;;;;;7.65;2.13;;;;;;;17.87;100.00;96236.69;4973822;28;20681;-71
2022/06/05 07:16:52;;;;;;;6.78;2.72;;;;;;;18.01;100.00;96244.34;4974218;28;20658;-71
2022/06/05 07:19:18;;;;;;;4.88;2.22;;;;;;;18.18;100.00;96263.28;4975112;28;20514;-75
2022/06/05 07:21:45;;;;;;;4.50;1.70;;;;;;;18.14;100.00;96252.19;4975075;28;20242;-71
2022/06/05 07:24:11;;;;;;;2.55;1.60;;;;;;;18.28;100.00;96255.53;4974124;28;20207;-71
2022/06/05 07:26:38;;;;;;;4.03;1.88;;;;;;;18.38;100.00;96249.47;4974740;28;20219;-72
2022/06/05 07:29:06;;;;;;;4.13;2.03;;;;;;;18.38;100.00;96249.47;4974699;28;20207;-73
2022/06/05 07:31:33;;;;;;;3.20;1.67;;;;;;;18.56;100.00;96252.09;4974551;28;20694;-70
2022/06/05 07:34:00;;;;;;;3.72;1.63;;;;;;;18.50;100.00;96238.84;4973955;28;20200;-71
2022/06/05 07:36:28;;;;;;;3.30;1.88;;;;;;;18.51;100.00;96251.94;4974650;28;20593;-71
2022/06/05 07:38:56;;;;;;;3.85;1.90;;;;;;;18.55;100.00;96241.66;4974612;28;20694;-73
2022/06/05 07:41:26;;;;;;;2.65;1.77;;;;;;;18.45;100.00;96244.84;4974805;28;20226;-70
2022/06/05 07:43:53;;;;;;;4.78;2.03;;;;;;;18.34;100.00;96226.09;4973739;28;20207;-70
2022/06/05 07:46:21;;;;;;;5.30;1.80;;;;;;;18.45;100.00;96220.00;4974297;28;20234;-70
2022/06/05 07:48:49;;;;;;;4.57;2.42;;;;;;;18.37;100.00;96223.00;4974680;28;20203;-71
2022/06/05 07:56:47;;;;;;;6.15;2.15;;;;;;;18.51;100.00;96214.59;4974462;28;20600;-71
2022/06/05 07:59:14;;;;;;;1.92;1.63;;;;;;;18.64;100.00;96224.28;4974850;28;20206;-70
2022/06/05 08:01:42;;;;;;;6.55;2.30;;;;;;;19.01;100.00;96227.38;4974399;28;20415;-71
2022/06/05 08:04:08;;;;;;;5.53;2.90;;;;;;;18.87;100.00;96227.81;4973749;28;20199;-71
2022/06/05 08:06:35;;;;;;;8.63;3.10;;;;;;;19.16;100.00;96219.00;4974684;28;20228;-70
2022/06/05 08:09:02;;;;;;;5.70;3.15;;;;;;;19.11;100.00;96210.84;4973833;28;20214;-70
2022/06/05 08:11:29;;;;;;;5.38;3.58;;;;;;;19.05;100.00;96190.34;4974522;28;20206;-70
2022/06/05 08:13:55;;;;;;;5.90;3.63;;;;;;;19.14;100.00;96195.19;4974062;28;20218;-71
2022/06/05 08:16:22;;;;;;;7.68;4.00;;;;;;;19.52;100.00;96195.53;4973700;28;20238;-70
2022/06/05 08:18:51;;;;;;;7.57;3.95;;;;;;;19.75;100.00;96176.81;4974096;28;20214;-70
2022/06/05 08:21:18;;;;;;;6.55;3.75;;;;;;;19.68;100.00;96171.59;4975192;28;20207;-71
2022/06/05 08:23:44;;;;;;;6.35;3.40;;;;;;;19.82;100.00;96180.97;4974459;28;20210;-71
2022/06/05 08:26:11;;;;;;;9.57;3.88;;;;;;;20.09;100.00;96167.94;4980117;28;20203;-71
2022/06/05 08:28:37;;;;;;;5.80;3.38;;;;;;;20.18;100.00;96170.00;4980961;28;20203;-71
2022/06/05 08:31:04;;;;;;;5.07;3.47;;;;;;;20.53;100.00;96154.59;4980747;28;20602;-72
2022/06/05 08:33:30;;;;;;;3.90;2.72;;;;;;;20.71;100.00;96165.09;4979439;28;20206;-71
2022/06/05 08:35:58;;;;;;;4.65;3.03;;;;;;;20.91;100.00;96156.41;4980819;28;20226;-71
2022/06/05 08:41:29;;;;;;;7.53;3.20;;;;;;;21.19;100.00;96159.00;4979814;28;20310;-72
2022/06/05 08:44:03;;;;;;;6.00;2.95;;;;;;;21.27;100.00;96158.63;4979658;28;20306;-72
2022/06/05 08:46:36;;;;;;;4.20;2.30;;;;;;;21.09;100.00;96152.66;4980166;28;20538;-71
2022/06/05 08:49:07;;;;;;;2.80;2.17;;;;;;;21.53;100.00;96152.59;4979875;28;20211;-72
2022/06/05 08:51:47;;;;;;;3.28;1.90;;;;;;;21.49;98.39;96151.44;4980548;28;20458;-71
2022/06/05 08:54:19;;;;;;;2.55;2.00;;;;;;;21.59;100.00;96159.66;4979269;28;20199;-71
2022/06/05 08:56:48;;;;;;;2.95;2.50;;;;;;;21.49;100.00;96151.44;4980134;28;20702;-71
2022/06/05 08:59:22;;;;;;;2.95;2.40;;;;;;;21.44;100.00;96152.16;4980067;28;20222;-71
2022/06/05 09:01:56;;;;;;;3.83;2.10;;;;;;;21.74;100.00;96149.13;4979894;28;20231;-73
2022/06/05 09:04:44;;;;;;;4.93;2.50;;;;;;;21.80;100.00;96151.63;4979364;28;20198;-73
2022/06/05 09:07:17;;;;;;;3.63;2.60;;;;;;;22.00;100.00;96154.59;4979877;28;20855;-70
2022/06/05 09:09:47;;;;;;;3.47;2.38;;;;;;;21.90;100.00;96159.03;4980498;28;20211;-71
2022/06/05 09:12:23;;;;;;;5.15;3.30;;;;;;;22.06;99.91;96148.22;4979242;28;20702;-71
2022/06/05 09:14:57;;;;;;;6.07;3.03;;;;;;;22.10;99.54;96158.19;4979993;28;20211;-72
2022/06/05 09:17:26;;;;;;;5.97;2.97;;;;;;;22.21;95.89;96159.97;4980135;28;20695;-71
2022/06/05 09:19:57;;;;;;;4.75;3.50;;;;;;;22.32;100.00;96167.09;4979668;28;20207;-73
2022/06/05 09:22:33;;;;;;;4.15;3.13;;;;;;;22.52;98.18;96174.59;4979158;28;20262;-72
2022/06/05 09:25:25;;;;;;;6.07;3.38;;;;;;;22.68;100.00;96182.53;4980190;28;20210;-71
2022/06/05 09:28:29;;;;;;;3.17;2.40;;;;;;;22.73;90.29;96179.91;4979377;28;20430;-71
2022/06/05 09:31:04;;;;;;;4.07;2.35;;;;;;;22.79;98.80;96171.63;4980659;28;20306;-72
2022/06/05 09:33:34;;;;;;;3.58;2.33;;;;;;;23.15;95.01;96180.88;4978882;28;20206;-71
2022/06/05 09:36:05;;;;;;;3.05;2.13;;;;;;;22.86;89.62;96182.16;4976703;28;20211;-72
2022/06/05 09:38:38;;;;;;;3.42;1.95;;;;;;;23.08;90.73;96188.34;4976555;28;20206;-71
2022/06/05 09:41:21;;;;;;;3.03;2.03;;;;;;;23.24;91.40;96195.47;4976810;28;20199;-71
2022/06/05 09:43:58;;;;;;;3.33;2.30;;;;;;;23.50;92.07;96185.47;4975207;28;20238;-73
2022/06/05 09:46:42;;;;;;;3.47;2.25;;;;;;;23.56;89.80;96189.81;4976858;28;20222;-72
2022/06/05 09:49:13;;;;;;;3.97;1.92;;;;;;;23.57;85.85;96186.03;4976330;28;20600;-73
2022/06/05 09:51:42;;;;;;;2.42;2.13;;;;;;;23.65;89.34;96174.81;4975318;28;20207;-72
2022/06/05 09:54:20;;;;;;;1.77;1.63;;;;;;;24.13;88.68;96161.09;4975043;28;20210;-75
2022/06/05 09:59:49;;;;;;;3.25;1.98;;;;;;;24.17;88.01;96160.34;4976028;28;20275;-71
2022/06/05 10:02:21;;;;;;;1.65;1.50;;;;;;;24.01;88.18;96158.63;4976055;28;20227;-71
2022/06/05 10:04:48;;;;;;;2.05;1.65;;;;;;;24.14;87.83;96160.03;4976088;28;20318;-73
2022/06/05 10:07:21;;;;;;;3.83;2.00;;;;;;;24.43;84.47;96150.50;4975695;28;20242;-72
2022/06/05 10:09:49;;;;;;;2.53;2.08;;;;;;;24.48;79.93;96151.31;4976033;28;20425;-74
2022/06/05 10:12:23;;;;;;;4.40;2.08;;;;;;;24.40;80.86;96151.84;4975356;28;20203;-72
2022/06/05 10:14:54;;;;;;;3.85;2.30;;;;;;;24.62;82.13;96157.84;4975818;28;20215;-71
2022/06/05 10:17:40;;;;;;;2.45;1.90;;;;;;;25.08;83.50;96154.97;4976043;28;20231;-72
2022/06/05 10:20:42;;;;;;;3.28;2.10;;;;;;;25.08;75.02;96146.88;4975723;28;20207;-72
2022/06/05 10:23:48;;;;;;;3.25;2.22;;;;;;;25.53;74.86;96144.16;4973141;28;20222;-72
2022/06/05 10:26:28;;;;;;;3.47;1.90;;;;;;;25.58;79.02;96144.16;4916547;28;20209;-72
2022/06/05 10:29:09;;;;;;;1.83;1.60;;;;;;;25.75;78.14;96131.19;4918930;28;20217;-73
2022/06/05 10:31:37;;;;;;;4.28;2.25;;;;;;;25.83;75.36;96123.34;4955489;28;20251;-72
2022/06/05 10:34:13;;;;;;;6.43;2.38;;;;;;;25.95;75.37;96127.38;4975456;28;20214;-72
2022/06/05 10:36:56;;;;;;;3.17;2.33;;;;;;;26.19;75.25;96122.94;4975596;28;20223;-72
2022/06/05 10:39:29;;;;;;;3.13;2.13;;;;;;;26.14;73.91;96125.66;4975225;28;20199;-72
2022/06/05 10:42:21;;;;;;;3.28;2.20;;;;;;;26.48;72.12;96126.63;4976350;28;20207;-72
2022/06/05 10:44:59;;;;;;;3.35;2.15;;;;;;;26.07;77.52;96114.38;4975544;28;20207;-71
2022/06/05 10:47:35;;;;;;;3.40;1.98;;;;;;;26.40;72.37;96113.72;4974512;28;20235;-72
2022/06/05 10:50:08;;;;;;;4.53;2.20;;;;;;;26.65;75.01;96118.97;4975491;28;20367;-74
2022/06/05 10:52:39;;;;;;;1.90;1.65;;;;;;;25.78;72.78;96111.78;4971657;28;20206;-71
2022/06/05 10:55:26;;;;;;;2.70;1.90;;;;;;;25.99;71.12;96111.41;4975494;28;20207;-72
2022/06/05 10:58:12;;;;;;;2.25;1.98;;;;;;;25.69;73.02;96103.38;4975281;28;20235;-74
2022/06/05 11:00:56;;;;;;;3.58;1.70;;;;;;;25.52;73.83;96110.16;4975029;28;20208;-73
2022/06/05 11:03:34;;;;;;;4.43;1.88;;;;;;;25.25;77.78;96107.78;4974410;28;20242;-73
2022/06/05 11:06:27;;;;;;;3.17;1.80;;;;;;;25.37;72.52;96118.28;4974849;28;20589;-73
2022/06/05 11:09:08;;;;;;;4.50;1.70;;;;;;;25.04;73.44;96112.56;4975194;28;20215;-72
2022/06/05 11:14:33;;;;;;;3.28;2.00;;;;;;;24.91;74.94;96129.28;4974454;28;20210;-73
2022/06/05 11:17:06;;;;;;;2.70;2.10;;;;;;;25.11;73.90;96132.84;4974439;28;20238;-73
2022/06/05 11:19:49;;;;;;;2.38;1.88;;;;;;;25.24;77.29;96137.69;4974931;28;20203;-74
2022/06/05 11:22:18;;;;;;;3.13;2.38;;;;;;;24.77;76.73;96144.38;4974348;28;20207;-73
2022/06/05 11:24:48;;;;;;;2.60;1.92;;;;;;;24.91;77.93;96140.91;4974635;28;20218;-72
2022/06/05 11:27:26;;;;;;;3.47;2.15;;;;;;;25.29;78.64;96135.00;4974704;28;20215;-74
2022/06/05 11:29:59;;;;;;;3.30;1.95;;;;;;;25.36;78.06;96138.25;4975112;28;20207;-74
2022/06/05 11:32:44;;;;;;;2.85;2.00;;;;;;;25.26;74.22;96146.34;4974276;28;20218;-72
2022/06/05 11:35:19;;;;;;;2.67;2.13;;;;;;;25.08;73.18;96156.88;4974799;28;20604;-73
2022/06/05 11:38:00;;;;;;;2.90;1.90;;;;;;;25.20;73.83;96142.84;4974545;28;20231;-71
2022/06/05 11:40:46;;;;;;;4.13;2.10;;;;;;;25.30;75.64;96155.50;4974420;28;20667;-74
2022/06/05 11:43:34;;;;;;;3.65;2.15;;;;;;;25.24;74.19;96157.41;4974274;28;20387;-71
2022/06/05 11:46:10;;;;;;;4.93;2.08;;;;;;;24.93;75.49;96172.97;4974519;28;20306;-72
2022/06/05 11:48:41;;;;;;;3.42;2.03;;;;;;;24.69;80.18;96175.38;4974245;28;20211;-71
2022/06/05 11:51:19;;;;;;;2.17;1.83;;;;;;;24.60;78.92;96186.91;4974326;28;20713;-72
2022/06/05 11:53:55;;;;;;;3.08;2.10;;;;;;;24.15;82.25;96181.31;4970918;28;20299;-73
2022/06/05 11:56:39;;;;;;;4.95;1.92;;;;;;;24.21;83.30;96182.97;4974358;28;20226;-73
2022/06/05 11:59:16;;;;;;;2.72;2.13;;;;;;;23.88;83.61;96181.69;4973713;28;20298;-73
2022/06/05 12:01:49;;;;;;;2.15;1.40;;;;;;;23.63;82.18;96192.28;4974707;28;20769;-71